Time;durP1;ratioP1;P1;durP2;ratioP2;P2;SDS_P1;SDS_P2;PMS_P1;PMS_P2;Temp;Humidity;BMP_temperature;BMP_pressure;BME280_temperature;BME280_humidity;BME280_pressure;Samples;Min_cycle;Max_cycle;Signal;HPM_P1;HPM_P2
2023/02/12 00:01:43;;;;;;;38.80;24.30;;;;;;;-3.40;76.89;98483.48;110388;1240;58868;-74
2023/02/12 00:04:12;;;;;;;41.70;25.60;;;;;;;-3.41;80.91;98488.09;110210;1241;71188;-75
2023/02/12 00:06:42;;;;;;;41.70;24.10;;;;;;;-3.42;84.39;98488.94;110245;1242;69424;-75
2023/02/12 00:09:12;;;;;;;38.00;23.90;;;;;;;-3.44;84.54;98485.19;110123;1245;68520;-74
2023/02/12 00:11:41;;;;;;;40.00;24.30;;;;;;;-3.47;85.92;98485.17;110379;1241;58886;-74
2023/02/12 00:14:09;;;;;;;36.30;23.20;;;;;;;-3.48;86.74;98478.54;110201;1242;58856;-75
2023/02/12 00:16:38;;;;;;;37.70;23.60;;;;;;;-3.47;84.74;98473.92;110215;1242;70956;-74
2023/02/12 00:19:09;;;;;;;35.40;22.20;;;;;;;-3.48;83.45;98471.38;110233;1242;69257;-74
2023/02/12 00:21:38;;;;;;;45.60;25.70;;;;;;;-3.48;82.56;98472.58;110181;1242;68994;-74
2023/02/12 00:24:08;;;;;;;48.10;28.40;;;;;;;-3.49;80.78;98474.80;110202;1242;59351;-74
2023/02/12 00:26:38;;;;;;;50.10;29.10;;;;;;;-3.51;85.12;98483.83;110195;1242;58918;-73
2023/02/12 00:29:10;;;;;;;47.70;27.70;;;;;;;-3.52;86.67;98483.65;110225;1242;69836;-73
2023/02/12 00:31:38;;;;;;;;;;;;;;;-3.54;88.58;98487.23;110265;1242;69841;-75
2023/02/12 00:34:10;;;;;;;48.30;28.90;;;;;;;-3.54;88.98;98488.95;110283;1241;68407;-76
2023/02/12 00:36:41;;;;;;;48.30;28.50;;;;;;;-3.56;89.79;98481.26;110251;1241;58935;-75
2023/02/12 00:39:10;;;;;;;48.40;28.70;;;;;;;-3.57;89.13;98478.87;110285;1240;58931;-75
2023/02/12 00:41:40;;;;;;;43.60;24.90;;;;;;;-3.59;90.15;98472.58;110240;1244;70629;-76
2023/02/12 00:44:09;;;;;;;48.60;29.10;;;;;;;-3.58;87.68;98472.74;110189;1242;68735;-77
2023/02/12 00:46:38;;;;;;;37.50;22.60;;;;;;;-3.59;85.28;98470.88;110194;1241;69973;-75
2023/02/12 00:49:07;;;;;;;44.10;25.70;;;;;;;-3.61;84.24;98465.41;110290;1240;58902;-74
2023/02/12 00:51:36;;;;;;;46.50;31.00;;;;;;;-3.64;86.31;98457.41;110224;1242;59244;-75
2023/02/12 00:54:05;;;;;;;45.70;30.70;;;;;;;-3.67;87.76;98455.19;110396;1240;70562;-75
2023/02/12 00:56:35;;;;;;;48.60;31.00;;;;;;;-3.68;84.30;98454.02;110293;1242;69831;-76
2023/02/12 00:59:05;;;;;;;38.80;24.90;;;;;;;-3.70;81.09;98452.96;110355;1242;68581;-75
2023/02/12 01:01:36;;;;;;;36.90;24.70;;;;;;;-3.74;83.72;98449.23;110387;1241;58902;-75
2023/02/12 01:04:05;;;;;;;45.40;28.30;;;;;;;-3.77;85.99;98443.60;110360;1241;58949;-75
2023/02/12 01:06:34;;;;;;;46.50;29.20;;;;;;;-3.78;89.44;98441.90;110272;1240;71002;-75
2023/02/12 01:09:05;;;;;;;47.00;29.50;;;;;;;-3.80;91.45;98439.67;110428;1240;68809;-74
2023/02/12 01:11:34;;;;;;;48.40;28.80;;;;;;;-3.81;92.22;98438.14;110388;1242;69856;-75
2023/02/12 01:14:04;;;;;;;48.10;30.50;;;;;;;-3.84;92.78;98434.23;110270;1240;58899;-74
2023/02/12 01:16:35;;;;;;;43.40;25.70;;;;;;;-3.85;93.16;98433.20;110237;1242;58876;-74
2023/02/12 01:19:05;;;;;;;37.10;21.70;;;;;;;-3.83;93.41;98435.59;110160;1250;69714;-74
2023/02/12 01:21:34;;;;;;;;;;;;;;;-3.83;93.75;98431.84;110130;1241;69432;-74
2023/02/12 01:24:05;;;;;;;45.10;26.70;;;;;;;-3.84;94.50;98423.99;110172;1244;68556;-75
2023/02/12 01:26:35;;;;;;;47.30;27.70;;;;;;;-3.86;94.59;98426.55;110124;1245;59011;-74
2023/02/12 01:29:06;;;;;;;52.70;28.70;;;;;;;-3.84;95.10;98427.41;110215;1242;58921;-75
2023/02/12 01:31:38;;;;;;;49.20;29.00;;;;;;;-3.83;95.12;98434.91;110179;1243;69853;-74
2023/02/12 01:34:10;;;;;;;46.80;27.50;;;;;;;-3.81;94.93;98432.18;110250;1242;70186;-75
2023/02/12 01:36:39;;;;;;;38.80;25.20;;;;;;;-3.79;94.22;98430.15;110260;1241;69931;-75
2023/02/12 01:39:11;;;;;;;52.90;30.70;;;;;;;-3.76;94.77;98434.73;110503;1241;58899;-75
2023/02/12 01:41:42;;;;;;;46.10;28.70;;;;;;;-3.75;94.98;98439.16;110469;1242;58830;-76
2023/02/12 01:44:21;;;;;;;50.80;30.40;;;;;;;-3.74;95.54;98438.16;110453;1242;69772;-75
2023/02/12 01:47:03;;;;;;;52.60;30.50;;;;;;;-3.74;95.22;98431.86;110302;1241;69270;-75
2023/02/12 01:49:38;;;;;;;50.20;30.90;;;;;;;-3.76;95.58;98435.25;110296;1242;69266;-74
2023/02/12 01:52:23;;;;;;;55.30;30.80;;;;;;;-3.76;95.49;98434.39;110374;1242;58830;-75
2023/02/12 01:54:57;;;;;;;49.70;29.20;;;;;;;-3.74;95.48;98443.27;110199;1244;58911;-75
2023/02/12 01:57:30;;;;;;;52.20;29.40;;;;;;;-3.73;95.26;98444.80;110230;1242;71085;-75
2023/02/12 02:00:05;;;;;;;52.80;30.10;;;;;;;-3.73;95.22;98441.73;110268;1241;68651;-73
2023/02/12 02:02:47;;;;;;;45.30;26.60;;;;;;;-3.74;95.66;98440.71;110182;1242;69388;-74
2023/02/12 02:05:27;;;;;;;47.90;27.90;;;;;;;-3.73;95.52;98435.77;110277;1241;58951;-73
2023/02/12 02:07:57;;;;;;;47.10;27.00;;;;;;;-3.73;95.46;98437.48;110263;1241;58990;-74
2023/02/12 02:10:29;;;;;;;39.00;24.90;;;;;;;-3.72;95.21;98436.95;110240;1240;70490;-73
2023/02/12 02:15:53;;;;;;;51.40;29.30;;;;;;;-3.71;95.01;98439.34;110172;1241;68418;-74
2023/02/12 02:18:32;;;;;;;45.60;27.20;;;;;;;-3.70;95.05;98442.39;110332;1240;58944;-73
2023/02/12 02:21:18;;;;;;;54.70;31.10;;;;;;;-3.68;95.35;98439.34;110270;1240;58934;-74
2023/02/12 02:24:16;;;;;;;46.90;26.80;;;;;;;-3.67;95.68;98429.29;110204;1241;70866;-73
2023/02/12 02:27:14;;;;;;;48.20;27.50;;;;;;;-3.64;95.34;98424.35;110224;1241;68336;-73
2023/02/12 02:29:57;;;;;;;40.30;25.50;;;;;;;-3.63;95.26;98425.02;110335;1242;69695;-75
2023/02/12 02:32:35;;;;;;;45.60;26.60;;;;;;;-3.62;94.89;98426.55;110318;1242;59303;-75
2023/02/12 02:35:20;;;;;;;46.30;26.80;;;;;;;-3.61;94.61;98431.16;110317;1240;58937;-74
2023/02/12 02:38:06;;;;;;;39.40;23.20;;;;;;;-3.62;95.26;98435.59;110201;1241;69002;-75
2023/02/12 02:41:15;;;;;;;42.90;24.90;;;;;;;-3.60;94.33;98441.57;110168;1244;69199;-74
2023/02/12 02:43:50;;;;;;;45.50;27.60;;;;;;;-3.59;94.83;98440.37;110093;1241;69868;-74
2023/02/12 02:46:36;;;;;;;46.80;28.20;;;;;;;-3.57;94.84;98434.23;110225;1242;58893;-75
2023/02/12 02:49:12;;;;;;;48.20;27.70;;;;;;;-3.60;95.63;98431.17;110292;1242;58883;-75
2023/02/12 02:51:46;;;;;;;41.70;23.90;;;;;;;-3.62;95.29;98425.88;110285;1240;71585;-76
2023/02/12 02:54:25;;;;;;;36.30;21.10;;;;;;;-3.62;95.25;98428.26;110347;1240;68457;-74
2023/02/12 02:57:04;;;;;;;50.10;27.30;;;;;;;-3.62;95.06;98438.31;110427;1242;69724;-75
2023/02/12 02:59:40;;;;;;;46.10;26.30;;;;;;;-3.62;95.13;98441.55;110274;1241;58944;-74
2023/02/12 03:02:20;;;;;;;47.50;27.40;;;;;;;-3.62;95.24;98440.18;110244;1240;58988;-74
2023/02/12 03:05:16;;;;;;;46.00;28.20;;;;;;;-3.61;95.65;98435.41;110223;1242;69728;-75
2023/02/12 03:07:51;;;;;;;45.90;27.00;;;;;;;-3.60;95.27;98434.92;110188;1243;69206;-74
2023/02/12 03:10:30;;;;;;;48.60;28.60;;;;;;;-3.60;95.47;98437.81;110235;1240;69174;-77
2023/02/12 03:13:02;;;;;;;50.60;29.00;;;;;;;-3.60;95.33;98443.95;110210;1241;58875;-75
2023/02/12 03:15:38;;;;;;;49.80;28.60;;;;;;;-3.59;95.21;98448.38;110257;1242;58837;-75
2023/02/12 03:18:14;;;;;;;50.30;30.10;;;;;;;-3.57;95.36;98447.02;110264;1242;71020;-75
2023/02/12 03:20:51;;;;;;;47.70;27.70;;;;;;;-3.56;95.55;98450.07;110216;1241;69025;-74
2023/02/12 03:23:28;;;;;;;47.90;27.60;;;;;;;-3.56;95.75;98455.70;110234;1242;69336;-74
2023/02/12 03:26:09;;;;;;;56.60;30.90;;;;;;;-3.54;95.59;98452.64;110270;1241;58885;-75
2023/02/12 03:28:39;;;;;;;51.50;30.30;;;;;;;-3.54;95.39;98455.88;110275;1242;58889;-75
2023/02/12 03:31:28;;;;;;;48.20;29.30;;;;;;;-3.53;95.54;98458.27;110239;1242;70308;-75
2023/02/12 03:34:26;;;;;;;46.90;28.50;;;;;;;-3.54;95.58;98459.11;110178;1242;69696;-75
2023/02/12 03:37:16;;;;;;;49.10;28.20;;;;;;;-3.52;95.59;98457.73;110219;1242;69280;-74
2023/02/12 03:40:14;;;;;;;46.80;29.30;;;;;;;-3.51;95.36;98457.75;110271;1242;58887;-75
2023/02/12 03:42:59;;;;;;;52.60;31.70;;;;;;;-3.51;94.83;98459.45;110202;1240;58931;-74
2023/02/12 03:45:56;;;;;;;53.00;29.40;;;;;;;-3.51;94.45;98460.63;110199;1241;70655;-74
2023/02/12 03:48:30;;;;;;;48.80;29.10;;;;;;;-3.52;95.46;98473.42;110137;1243;68797;-73
2023/02/12 03:51:04;;;;;;;45.00;25.00;;;;;;;-3.53;95.50;98472.91;110146;1243;69311;-74
2023/02/12 03:53:35;;;;;;;41.80;26.40;;;;;;;-3.51;94.65;98471.38;110186;1242;58867;-74
2023/02/12 03:56:16;;;;;;;48.70;29.40;;;;;;;-3.51;93.90;98478.36;110182;1242;58883;-74
2023/02/12 03:58:49;;;;;;;55.50;31.70;;;;;;;-3.51;94.32;98480.41;110267;1242;69830;-76
2023/02/12 04:01:19;;;;;;;55.80;30.50;;;;;;;-3.51;95.09;98477.52;110242;1242;69201;-73
2023/02/12 04:03:49;;;;;;;;;;;;;;;-3.53;95.36;98475.98;110184;1242;68413;-73
2023/02/12 04:06:27;;;;;;;58.60;32.80;;;;;;;-3.53;95.87;98478.70;110154;1240;58864;-74
2023/02/12 04:09:06;;;;;;;55.60;31.60;;;;;;;-3.53;96.00;98484.33;110265;1242;58894;-73
2023/02/12 04:12:08;;;;;;;55.00;31.60;;;;;;;-3.52;95.76;98486.71;110201;1248;71163;-74
2023/02/12 04:14:54;;;;;;;50.10;30.40;;;;;;;-3.53;96.04;98483.14;110176;1240;69113;-73
2023/02/12 04:17:45;;;;;;;48.70;28.40;;;;;;;-3.53;95.84;98486.55;110220;1241;69109;-73
2023/02/12 04:20:37;;;;;;;45.40;26.60;;;;;;;-3.51;95.34;98493.20;110236;1242;58963;-74
2023/02/12 04:23:39;;;;;;;48.10;29.80;;;;;;;-3.50;95.61;98497.64;110333;1242;58876;-75
2023/02/12 04:26:21;;;;;;;;;;;;;;;-3.48;95.97;98490.13;110395;1242;71177;-75
2023/02/12 04:29:14;;;;;;;39.60;24.80;;;;;;;-3.46;96.02;98493.71;110294;1241;69399;-73
2023/02/12 04:31:50;;;;;;;49.00;28.10;;;;;;;-3.45;95.83;98492.52;110169;1243;69844;-74
2023/02/12 04:34:58;;;;;;;46.40;28.20;;;;;;;-3.44;95.62;98495.41;110173;1244;58944;-74
2023/02/12 04:37:56;;;;;;;44.20;25.40;;;;;;;-3.42;94.96;98496.60;110151;1241;58939;-74
2023/02/12 04:40:26;;;;;;;44.00;27.00;;;;;;;-3.44;92.95;98495.92;110243;1241;70571;-74
2023/02/12 04:42:57;;;;;;;43.30;25.80;;;;;;;-3.47;93.66;98494.39;110221;1240;69218;-74
2023/02/12 04:45:29;;;;;;;65.70;35.50;;;;;;;-3.48;94.62;98495.76;110184;1240;69291;-74
2023/02/12 04:48:00;;;;;;;57.80;31.40;;;;;;;-3.48;94.18;98498.81;110250;1242;58861;-74
2023/02/12 04:50:48;;;;;;;55.90;33.10;;;;;;;-3.50;93.70;98497.64;110215;1241;58997;-74
2023/02/12 04:53:19;;;;;;;49.20;28.90;;;;;;;-3.53;94.84;98498.64;110217;1242;70825;-74
2023/02/12 04:55:49;;;;;;;58.50;34.20;;;;;;;-3.53;95.60;98501.02;110181;1242;68456;-74
2023/02/12 04:58:18;;;;;;;58.80;33.70;;;;;;;-3.51;95.60;98506.32;110191;1244;69858;-74
2023/02/12 05:00:49;;;;;;;58.70;33.70;;;;;;;-3.49;95.71;98515.02;110169;1243;58941;-74
2023/02/12 05:03:19;;;;;;;56.40;31.60;;;;;;;-3.50;95.48;98521.66;110209;1241;58878;-74
2023/02/12 05:05:49;;;;;;;;;;;;;;;-3.49;95.78;98527.46;110179;1244;70658;-74
2023/02/12 05:08:19;;;;;;;51.80;27.90;;;;;;;-3.49;96.42;98527.29;109789;1244;538541;-73
2023/02/12 05:10:49;;;;;;;46.80;26.40;;;;;;;-3.47;96.26;98527.27;110220;1241;69963;-73
2023/02/12 05:13:18;;;;;;;37.60;20.80;;;;;;;-3.45;95.97;98528.48;110262;1242;58884;-74
2023/02/12 05:15:48;;;;;;;42.80;27.40;;;;;;;-3.43;94.53;98530.69;110334;1241;58836;-74
2023/02/12 05:18:17;;;;;;;50.20;31.10;;;;;;;-3.45;95.66;98538.88;110205;1240;70597;-74
2023/02/12 05:20:57;;;;;;;50.40;29.40;;;;;;;-3.49;95.82;98530.52;110215;1240;69172;-74
2023/02/12 05:23:29;;;;;;;48.10;28.60;;;;;;;-3.50;96.05;98529.85;110175;1243;68524;-74
2023/02/12 05:26:00;;;;;;;55.60;33.00;;;;;;;-3.52;96.09;98525.57;110166;1241;58935;-73
2023/02/12 05:28:30;;;;;;;49.30;29.70;;;;;;;-3.55;95.93;98519.44;110216;1242;58860;-74
2023/02/12 05:31:04;;;;;;;;;;;;;;;-3.54;96.38;98516.04;110205;1242;70838;-74
2023/02/12 05:33:34;;;;;;;50.90;29.40;;;;;;;-3.54;96.38;98517.91;110203;1242;69850;-74
2023/02/12 05:36:08;;;;;;;59.30;31.30;;;;;;;-3.52;96.23;98529.83;110173;1241;69357;-75
2023/02/12 05:38:38;;;;;;;55.20;31.20;;;;;;;-3.52;96.22;98528.30;110267;1241;58887;-74
2023/02/12 05:41:12;;;;;;;48.80;28.00;;;;;;;-3.49;96.39;98536.32;110290;1241;58889;-74
2023/02/12 05:43:42;;;;;;;53.20;30.80;;;;;;;-3.46;96.12;98546.71;110317;1242;69957;-74
2023/02/12 05:46:11;;;;;;;55.50;31.20;;;;;;;-3.43;96.03;98555.06;110198;1242;69807;-74
2023/02/12 05:48:41;;;;;;;57.80;33.10;;;;;;;-3.43;96.18;98554.71;110246;1242;69270;-74
2023/02/12 05:51:13;;;;;;;56.00;30.20;;;;;;;-3.44;95.19;98551.66;110327;1241;58856;-74
2023/02/12 05:53:42;;;;;;;51.10;30.40;;;;;;;-3.47;95.68;98559.83;110300;1241;58903;-74
2023/02/12 05:56:18;;;;;;;45.90;26.30;;;;;;;-3.46;96.25;98567.52;110337;1241;69865;-75
2023/02/12 05:58:53;;;;;;;47.00;26.90;;;;;;;-3.45;96.44;98564.27;110219;1242;69541;-74
2023/02/12 06:01:28;;;;;;;40.10;22.80;;;;;;;-3.42;96.03;98575.02;110274;1242;69477;-74
2023/02/12 06:03:59;;;;;;;39.40;22.40;;;;;;;-3.39;96.25;98573.65;110279;1242;58944;-73
2023/02/12 06:06:29;;;;;;;44.10;25.30;;;;;;;-3.35;95.98;98582.87;110241;1242;58889;-74
2023/02/12 06:08:58;;;;;;;51.60;30.70;;;;;;;-3.34;96.27;98588.32;110230;1242;70555;-75
2023/02/12 06:11:28;;;;;;;;;;;;;;;-3.36;95.95;98593.77;110322;1240;69184;-73
2023/02/12 06:13:56;;;;;;;44.90;26.30;;;;;;;-3.38;95.98;98591.55;110287;1242;68520;-74
2023/02/12 06:16:27;;;;;;;;;;;;;;;-3.36;96.01;98590.38;110209;1241;58912;-75
2023/02/12 06:18:57;;;;;;;57.80;33.70;;;;;;;-3.37;95.90;98604.35;110228;1240;59014;-75
2023/02/12 06:21:27;;;;;;;59.50;34.20;;;;;;;-3.40;95.55;98605.88;110248;1241;71171;-74
2023/02/12 06:23:56;;;;;;;57.60;32.20;;;;;;;-3.40;96.13;98611.50;110232;1241;69361;-74
2023/02/12 06:26:25;;;;;;;61.10;33.70;;;;;;;-3.37;96.43;98615.77;110176;1240;68888;-73
2023/02/12 06:28:55;;;;;;;62.10;34.80;;;;;;;-3.35;95.99;98615.94;110172;1242;58948;-74
2023/02/12 06:31:29;;;;;;;65.00;36.10;;;;;;;-3.34;96.18;98617.81;110250;1241;58870;-75
2023/02/12 06:34:10;;;;;;;63.10;34.90;;;;;;;-3.31;96.13;98616.46;110170;1243;69411;-74
2023/02/12 06:36:41;;;;;;;60.50;35.90;;;;;;;-3.27;96.34;98620.39;110337;1241;68475;-74
2023/02/12 06:39:12;;;;;;;61.80;32.90;;;;;;;-3.23;96.29;98626.54;110347;1242;68302;-74
2023/02/12 06:41:42;;;;;;;61.60;35.30;;;;;;;-3.17;96.94;98633.88;110235;1244;58938;-73
2023/02/12 06:44:12;;;;;;;63.70;36.90;;;;;;;-3.01;97.62;98633.89;110263;1241;59273;-73
2023/02/12 06:46:41;;;;;;;57.70;35.50;;;;;;;-2.90;97.02;98631.16;110190;1243;69760;-72
2023/02/12 06:49:13;;;;;;;64.40;37.60;;;;;;;-2.79;95.55;98629.80;110205;1240;68242;-73
2023/02/12 06:51:42;;;;;;;60.90;34.60;;;;;;;-2.72;94.58;98633.04;110255;1241;68870;-72
2023/02/12 06:54:13;;;;;;;61.90;37.80;;;;;;;-2.65;94.05;98632.02;110182;1246;58931;-73
2023/02/12 06:56:43;;;;;;;62.40;37.60;;;;;;;-2.62;93.99;98635.60;110161;1241;59005;-72
2023/02/12 06:59:14;;;;;;;67.10;37.80;;;;;;;-2.61;93.31;98638.66;110170;1244;71025;-73
2023/02/12 07:01:43;;;;;;;59.80;35.90;;;;;;;-2.59;93.31;98641.73;110220;1243;69194;-73
2023/02/12 07:04:12;;;;;;;64.50;39.20;;;;;;;-2.59;93.84;98638.66;110123;1241;69247;-74
2023/02/12 07:06:41;;;;;;;57.30;35.10;;;;;;;-2.53;93.41;98639.52;110221;1241;58938;-74
2023/02/12 07:09:10;;;;;;;63.50;37.70;;;;;;;-2.49;93.70;98633.54;110295;1242;58878;-74
2023/02/12 07:11:39;;;;;;;73.00;39.40;;;;;;;-2.43;93.25;98635.41;110418;1242;70495;-73
2023/02/12 07:14:14;;;;;;;57.00;34.10;;;;;;;-2.37;92.65;98638.83;110157;1242;69042;-73
2023/02/12 07:16:42;;;;;;;58.50;34.30;;;;;;;-2.30;91.99;98634.19;110217;1242;69871;-73
2023/02/12 07:19:12;;;;;;;48.10;29.30;;;;;;;-2.21;91.52;98637.23;110196;1242;58994;-74
2023/02/12 07:21:41;;;;;;;55.90;32.90;;;;;;;-2.13;91.03;98645.07;110255;1242;58889;-73
2023/02/12 07:24:11;;;;;;;45.00;28.70;;;;;;;-2.09;89.88;98649.34;110219;1242;70607;-73
2023/02/12 07:26:40;;;;;;;45.60;28.70;;;;;;;-2.03;89.69;98653.93;110295;1242;70138;-73
2023/02/12 07:29:09;;;;;;;53.70;31.50;;;;;;;-1.95;89.54;98660.05;110209;1247;68483;-74
2023/02/12 07:31:39;;;;;;;50.20;28.40;;;;;;;-1.91;88.97;98658.34;110383;1242;58928;-73
2023/02/12 07:34:09;;;;;;;40.80;24.10;;;;;;;-1.89;88.29;98659.54;110258;1242;58874;-73
2023/02/12 07:36:38;;;;;;;51.60;30.50;;;;;;;-1.85;88.47;98665.16;110278;1242;69807;-73
2023/02/12 07:39:07;;;;;;;45.60;26.20;;;;;;;-1.82;88.88;98666.35;110263;1242;69558;-73
2023/02/12 07:41:36;;;;;;;50.50;29.80;;;;;;;-1.73;88.19;98670.59;110160;1242;68818;-73
2023/02/12 07:44:09;;;;;;;47.30;28.80;;;;;;;-1.74;87.11;98665.45;110362;1242;58937;-74
2023/02/12 07:46:46;;;;;;;51.30;31.70;;;;;;;-1.74;87.27;98667.17;110246;1241;58947;-73
2023/02/12 07:49:21;;;;;;;49.40;28.60;;;;;;;-1.74;87.07;98663.07;110366;1245;71280;-73
2023/02/12 07:51:55;;;;;;;48.60;27.10;;;;;;;-1.66;87.01;98661.15;110272;1242;68551;-73
2023/02/12 07:54:24;;;;;;;46.10;27.20;;;;;;;-1.58;86.45;98670.88;110244;1240;68370;-74
2023/02/12 07:56:53;;;;;;;47.10;28.70;;;;;;;-1.51;86.16;98669.64;110268;1241;58950;-72
2023/02/12 07:59:27;;;;;;;58.40;33.50;;;;;;;-1.42;85.97;98670.97;110194;1242;58929;-73
2023/02/12 08:02:03;;;;;;;70.70;39.30;;;;;;;-1.41;85.27;98669.09;110184;1242;70844;-73
2023/02/12 08:04:32;;;;;;;61.90;37.40;;;;;;;-1.41;85.24;98672.16;110189;1241;68309;-73
2023/02/12 08:07:02;;;;;;;61.80;38.40;;;;;;;-1.42;84.97;98673.35;110131;1243;68528;-73
2023/02/12 08:09:31;;;;;;;57.40;34.90;;;;;;;-1.43;85.24;98675.41;110225;1245;58953;-73
2023/02/12 08:11:59;;;;;;;56.20;34.20;;;;;;;-1.44;84.79;98679.86;110277;1242;58856;-73
2023/02/12 08:14:29;;;;;;;58.90;35.00;;;;;;;-1.37;84.77;98680.52;110293;1241;70943;-73
2023/02/12 08:16:57;;;;;;;56.90;33.40;;;;;;;-1.33;84.54;98689.39;110255;1243;69827;-73
2023/02/12 08:19:26;;;;;;;56.90;34.10;;;;;;;-1.27;84.06;98689.54;110161;1241;69873;-73
2023/02/12 08:21:55;;;;;;;57.80;36.90;;;;;;;-1.23;83.77;98688.66;110236;1242;58937;-74
2023/02/12 08:24:24;;;;;;;49.90;31.10;;;;;;;-1.17;83.54;98690.00;110236;1242;58907;-72
2023/02/12 08:26:54;;;;;;;56.50;34.20;;;;;;;-1.09;82.60;98690.63;110407;1242;70504;-73
2023/02/12 08:29:27;;;;;;;56.50;35.60;;;;;;;-0.99;82.40;98691.25;110222;1248;69255;-74
2023/02/12 08:32:01;;;;;;;55.40;34.30;;;;;;;-0.89;81.75;98696.33;110255;1240;69372;-73
2023/02/12 08:34:33;;;;;;;52.10;31.70;;;;;;;-0.77;80.93;98698.14;110269;1242;58890;-73
2023/02/12 08:37:04;;;;;;;39.80;25.60;;;;;;;-0.70;80.54;98705.45;110241;1242;58828;-74
2023/02/12 08:39:33;;;;;;;46.70;29.60;;;;;;;-0.58;80.41;98712.20;110275;1241;71140;-75
2023/02/12 08:42:02;;;;;;;46.30;29.40;;;;;;;-0.55;79.24;98718.86;110297;1242;70011;-74
2023/02/12 08:44:31;;;;;;;43.50;28.00;;;;;;;-0.59;78.99;98726.08;110465;1240;68493;-74
2023/02/12 08:46:59;;;;;;;45.90;27.60;;;;;;;-0.57;79.02;98728.46;110293;1241;58920;-74
2023/02/12 08:49:29;;;;;;;42.90;25.10;;;;;;;-0.51;79.25;98727.73;110303;1242;58853;-74
2023/02/12 08:52:00;;;;;;;42.10;26.40;;;;;;;-0.42;78.92;98727.48;110258;1240;70492;-73
2023/02/12 08:54:30;;;;;;;45.50;27.60;;;;;;;-0.38;78.07;98735.34;110233;1241;69270;-74
2023/02/12 08:57:01;;;;;;;48.20;29.40;;;;;;;-0.50;77.24;98744.00;110388;1242;69517;-74
2023/02/12 08:59:30;;;;;;;50.90;30.70;;;;;;;-0.59;77.68;98748.34;110187;1242;59279;-73
2023/02/12 09:01:59;;;;;;;47.20;30.40;;;;;;;-0.62;78.03;98745.98;110284;1245;58864;-75
2023/02/12 09:04:29;;;;;;;45.10;29.90;;;;;;;-0.57;78.32;98751.22;110374;1240;70377;-74
2023/02/12 09:06:58;;;;;;;49.70;31.40;;;;;;;-0.54;78.30;98759.44;110181;1242;69797;-74
2023/02/12 09:09:27;;;;;;;45.30;28.80;;;;;;;-0.50;77.72;98759.08;110237;1242;69712;-74
2023/02/12 09:11:56;;;;;;;49.60;29.00;;;;;;;-0.40;77.32;98762.43;110286;1242;58947;-74
2023/02/12 09:14:25;;;;;;;44.60;29.10;;;;;;;-0.29;76.79;98760.46;110128;1243;58933;-74
2023/02/12 09:16:56;;;;;;;47.30;28.60;;;;;;;-0.25;75.95;98762.65;110231;1241;70541;-74
2023/02/12 09:19:24;;;;;;;50.60;29.70;;;;;;;-0.17;76.03;98769.27;110232;1242;68495;-74
2023/02/12 09:21:54;;;;;;;47.80;29.40;;;;;;;-0.14;75.48;98766.34;110239;1242;69239;-73
2023/02/12 09:24:26;;;;;;;44.20;29.10;;;;;;;-0.02;75.40;98770.34;110259;1243;58898;-73
2023/02/12 09:26:56;;;;;;;42.10;28.20;;;;;;;0.12;74.88;98782.05;110220;1242;58828;-73
2023/02/12 09:29:25;;;;;;;52.30;30.70;;;;;;;0.31;74.86;98787.00;110224;1241;71160;-74
2023/02/12 09:31:53;;;;;;;44.80;28.30;;;;;;;0.56;74.44;98788.29;110172;1244;69195;-74
2023/02/12 09:34:22;;;;;;;47.60;31.30;;;;;;;0.79;74.01;98790.26;110276;1241;69257;-74
2023/02/12 09:36:51;;;;;;;44.60;30.10;;;;;;;0.81;71.94;98785.94;110215;1242;58951;-74
2023/02/12 09:39:20;;;;;;;44.60;29.80;;;;;;;0.96;71.60;98780.79;110237;1242;58824;-74
2023/02/12 09:42:14;;;;;;;41.90;28.10;;;;;;;1.19;71.33;98787.88;110160;1245;70540;-74
2023/02/12 09:44:46;;;;;;;48.20;31.00;;;;;;;1.92;69.55;98790.58;110227;1242;69781;-74
2023/02/12 09:47:55;;;;;;;40.10;26.80;;;;;;;2.45;67.47;98790.18;110288;1242;68814;-75
2023/02/12 09:50:36;;;;;;;45.30;28.90;;;;;;;3.05;63.87;98788.70;110296;1242;58940;-75
2023/02/12 09:53:05;;;;;;;45.90;28.90;;;;;;;3.49;61.95;98792.38;110193;1242;58871;-75
2023/02/12 09:55:34;;;;;;;48.00;29.90;;;;;;;4.29;60.19;98787.70;110257;1242;69859;-74
2023/02/12 09:58:15;;;;;;;39.00;26.40;;;;;;;4.51;57.95;98788.52;110266;1241;69083;-72
2023/02/12 10:00:44;;;;;;;37.60;25.50;;;;;;;4.97;56.98;98790.36;110191;1241;69102;-74
2023/02/12 10:03:17;;;;;;;37.20;26.00;;;;;;;6.04;56.42;98788.16;110305;1242;58937;-75
2023/02/12 10:06:10;;;;;;;41.90;30.30;;;;;;;6.43;52.21;98787.05;110154;1244;58869;-74
2023/02/12 10:08:49;;;;;;;38.20;26.80;;;;;;;7.48;50.40;98785.99;110180;1241;71917;-74
2023/02/12 10:11:46;;;;;;;42.90;32.10;;;;;;;8.35;48.00;98783.92;110141;1242;69216;-73
2023/02/12 10:14:14;;;;;;;30.80;22.80;;;;;;;9.00;46.32;98777.80;110309;1242;69822;-75
2023/02/12 10:17:21;;;;;;;41.30;28.30;;;;;;;10.01;45.40;98778.65;110185;1243;58946;-74
2023/02/12 10:20:28;;;;;;;38.10;28.30;;;;;;;10.68;42.53;98769.75;110124;1243;58872;-74
2023/02/12 10:23:05;;;;;;;29.00;22.50;;;;;;;10.62;41.77;98774.95;109997;1240;70579;-71
2023/02/12 10:25:49;;;;;;;28.60;23.00;;;;;;;11.35;42.59;98768.13;110188;1242;69835;-71
2023/02/12 10:28:41;;;;;;;33.30;26.30;;;;;;;11.32;39.33;98769.33;110261;1242;68497;-72
2023/02/12 10:31:37;;;;;;;40.10;28.90;;;;;;;11.69;39.40;98775.16;110387;1242;58926;-74
2023/02/12 10:34:22;;;;;;;36.80;29.40;;;;;;;10.97;39.20;98771.91;110344;1242;58867;-74
2023/02/12 10:36:57;;;;;;;32.00;25.00;;;;;;;11.27;39.06;98768.38;110240;1241;71156;-72
2023/02/12 10:39:35;;;;;;;33.50;25.20;;;;;;;11.52;38.71;98767.55;110200;1242;69127;-73
2023/02/12 10:42:43;;;;;;;34.00;27.60;;;;;;;11.86;38.04;98771.06;110186;1241;69946;-73
2023/02/12 10:45:14;;;;;;;41.60;31.90;;;;;;;12.08;37.72;98781.16;110204;1242;58940;-72
2023/02/12 10:47:45;;;;;;;31.40;25.00;;;;;;;12.41;35.72;98780.51;110246;1242;58860;-73
2023/02/12 10:50:49;;;;;;;41.80;30.90;;;;;;;12.30;35.96;98780.25;110292;1240;70988;-73
2023/02/12 10:53:30;;;;;;;32.80;25.40;;;;;;;11.72;37.00;98787.36;110168;1242;70134;-72
2023/02/12 10:56:11;;;;;;;35.50;28.60;;;;;;;11.52;36.72;98794.58;110215;1241;69151;-72
2023/02/12 10:58:49;;;;;;;31.70;26.20;;;;;;;11.62;36.98;98800.32;110188;1240;58902;-73
2023/02/12 11:01:33;;;;;;;34.50;28.30;;;;;;;11.89;36.14;98802.14;110334;1242;58884;-73
2023/02/12 11:04:29;;;;;;;32.50;26.70;;;;;;;11.98;35.73;98802.54;110198;1244;70374;-73
2023/02/12 11:07:03;;;;;;;35.20;30.00;;;;;;;11.96;35.98;98796.19;110215;1242;69041;-74
2023/02/12 11:09:49;;;;;;;40.80;32.30;;;;;;;12.01;35.90;98792.58;110338;1241;69834;-73
2023/02/12 11:12:20;;;;;;;36.80;29.40;;;;;;;11.76;35.79;98781.88;110118;1241;58972;-72
2023/02/12 11:14:56;;;;;;;36.00;29.90;;;;;;;11.55;35.86;98779.80;110227;1242;58908;-72
2023/02/12 11:17:33;;;;;;;33.60;26.10;;;;;;;11.88;35.98;98782.29;110251;1242;70345;-71
2023/02/12 11:20:15;;;;;;;34.50;27.30;;;;;;;12.66;34.99;98784.77;110195;1242;69558;-71
2023/02/12 11:22:55;;;;;;;31.40;26.30;;;;;;;13.01;34.02;98778.67;110187;1242;69704;-72
2023/02/12 11:25:30;;;;;;;33.20;26.50;;;;;;;13.08;33.12;98774.19;110146;1241;58896;-72
2023/02/12 11:28:14;;;;;;;36.60;27.90;;;;;;;14.24;33.94;98780.14;110212;1242;58928;-72
2023/02/12 11:31:01;;;;;;;31.20;27.20;;;;;;;14.07;31.90;98795.33;110181;1242;69822;-72
2023/02/12 11:33:33;;;;;;;34.00;28.20;;;;;;;14.09;31.61;98797.46;110209;1242;69382;-72
2023/02/12 11:36:22;;;;;;;35.80;29.00;;;;;;;13.41;32.38;98795.73;110222;1242;69879;-73
2023/02/12 11:38:56;;;;;;;34.90;29.30;;;;;;;12.98;33.49;98790.56;110209;1242;58944;-74
2023/02/12 11:41:35;;;;;;;39.60;31.70;;;;;;;12.57;34.17;98797.06;110520;1242;58924;-71
2023/02/12 11:44:17;;;;;;;37.80;32.00;;;;;;;12.35;34.44;98800.41;110355;1242;71153;-72
2023/02/12 11:46:54;;;;;;;36.20;29.50;;;;;;;12.80;34.36;98785.14;110327;1242;68337;-71
2023/02/12 11:49:28;;;;;;;34.10;28.00;;;;;;;12.83;33.96;98777.83;110186;1241;69092;-73
2023/02/12 11:51:59;;;;;;;36.80;28.00;;;;;;;12.56;34.11;98775.07;110192;1245;58938;-73